sensor_id;sensor_type;location;lat;lon;timestamp;P1;durP1;ratioP1;P2;durP2;ratioP2
41059;SDS011;26811;53.160;8.202;2023-10-08T00:03:42;5.50;;;3.17;;
41059;SDS011;26811;53.160;8.202;2023-10-08T00:08:57;6.82;;;3.45;;
41059;SDS011;26811;53.160;8.202;2023-10-08T00:14:03;7.35;;;4.10;;
41059;SDS011;26811;53.160;8.202;2023-10-08T00:19:08;9.07;;;5.38;;
41059;SDS011;26811;53.160;8.202;2023-10-08T00:24:12;11.82;;;4.97;;
41059;SDS011;26811;53.160;8.202;2023-10-08T00:29:13;11.35;;;4.72;;
41059;SDS011;26811;53.160;8.202;2023-10-08T00:34:18;13.93;;;5.50;;
41059;SDS011;26811;53.160;8.202;2023-10-08T00:39:20;14.80;;;7.53;;
41059;SDS011;26811;53.160;8.202;2023-10-08T00:44:22;13.98;;;7.00;;
41059;SDS011;26811;53.160;8.202;2023-10-08T00:49:29;15.15;;;5.40;;
41059;SDS011;26811;53.160;8.202;2023-10-08T00:59:57;13.32;;;4.75;;
41059;SDS011;26811;53.160;8.202;2023-10-08T01:04:58;13.45;;;4.97;;
41059;SDS011;26811;53.160;8.202;2023-10-08T01:10:00;14.90;;;5.43;;
41059;SDS011;26811;53.160;8.202;2023-10-08T01:15:05;14.27;;;5.70;;
41059;SDS011;26811;53.160;8.202;2023-10-08T01:20:27;18.15;;;6.25;;
41059;SDS011;26811;53.160;8.202;2023-10-08T01:25:34;16.60;;;6.35;;
41059;SDS011;26811;53.160;8.202;2023-10-08T01:30:34;19.70;;;6.80;;
41059;SDS011;26811;53.160;8.202;2023-10-08T01:35:41;18.10;;;6.10;;
41059;SDS011;26811;53.160;8.202;2023-10-08T01:40:42;27.45;;;7.70;;
41059;SDS011;26811;53.160;8.202;2023-10-08T01:45:43;25.05;;;7.15;;
41059;SDS011;26811;53.160;8.202;2023-10-08T01:50:48;23.13;;;6.95;;
41059;SDS011;26811;53.160;8.202;2023-10-08T01:55:49;28.20;;;7.22;;
41059;SDS011;26811;53.160;8.202;2023-10-08T02:00:53;25.90;;;7.33;;
41059;SDS011;26811;53.160;8.202;2023-10-08T02:05:58;133.93;;;41.05;;
41059;SDS011;26811;53.160;8.202;2023-10-08T02:10:59;47.13;;;17.42;;
41059;SDS011;26811;53.160;8.202;2023-10-08T02:15:59;23.20;;;7.95;;
41059;SDS011;26811;53.160;8.202;2023-10-08T02:21:00;22.20;;;7.15;;
41059;SDS011;26811;53.160;8.202;2023-10-08T02:26:01;24.95;;;7.55;;
41059;SDS011;26811;53.160;8.202;2023-10-08T02:31:02;24.70;;;7.57;;
41059;SDS011;26811;53.160;8.202;2023-10-08T02:36:03;23.02;;;6.72;;
41059;SDS011;26811;53.160;8.202;2023-10-08T02:41:04;24.77;;;8.55;;
41059;SDS011;26811;53.160;8.202;2023-10-08T02:46:08;22.00;;;7.95;;
41059;SDS011;26811;53.160;8.202;2023-10-08T02:51:14;26.48;;;6.72;;
41059;SDS011;26811;53.160;8.202;2023-10-08T02:56:14;19.48;;;6.60;;
41059;SDS011;26811;53.160;8.202;2023-10-08T03:01:15;20.65;;;5.63;;
41059;SDS011;26811;53.160;8.202;2023-10-08T03:06:16;16.75;;;5.35;;
41059;SDS011;26811;53.160;8.202;2023-10-08T03:11:18;20.23;;;6.23;;
41059;SDS011;26811;53.160;8.202;2023-10-08T03:16:18;22.25;;;6.35;;
41059;SDS011;26811;53.160;8.202;2023-10-08T03:21:27;17.33;;;5.35;;
41059;SDS011;26811;53.160;8.202;2023-10-08T03:26:44;25.05;;;5.90;;
41059;SDS011;26811;53.160;8.202;2023-10-08T03:31:45;24.50;;;5.32;;
41059;SDS011;26811;53.160;8.202;2023-10-08T03:36:48;20.52;;;5.38;;
41059;SDS011;26811;53.160;8.202;2023-10-08T03:41:50;20.98;;;4.85;;
41059;SDS011;26811;53.160;8.202;2023-10-08T03:47:12;18.38;;;5.22;;
41059;SDS011;26811;53.160;8.202;2023-10-08T03:52:13;20.65;;;5.15;;
41059;SDS011;26811;53.160;8.202;2023-10-08T03:57:13;23.98;;;4.43;;
41059;SDS011;26811;53.160;8.202;2023-10-08T04:02:19;15.43;;;4.72;;
41059;SDS011;26811;53.160;8.202;2023-10-08T04:07:39;14.77;;;5.05;;
41059;SDS011;26811;53.160;8.202;2023-10-08T04:13:00;18.73;;;4.50;;
41059;SDS011;26811;53.160;8.202;2023-10-08T04:18:00;15.45;;;3.97;;
41059;SDS011;26811;53.160;8.202;2023-10-08T04:23:03;14.98;;;4.57;;
41059;SDS011;26811;53.160;8.202;2023-10-08T04:28:05;13.10;;;3.93;;
41059;SDS011;26811;53.160;8.202;2023-10-08T04:33:07;13.43;;;4.60;;
41059;SDS011;26811;53.160;8.202;2023-10-08T04:38:11;14.93;;;3.95;;
41059;SDS011;26811;53.160;8.202;2023-10-08T04:43:11;13.57;;;3.85;;
41059;SDS011;26811;53.160;8.202;2023-10-08T04:48:12;18.02;;;4.25;;
41059;SDS011;26811;53.160;8.202;2023-10-08T04:53:19;12.07;;;4.13;;
41059;SDS011;26811;53.160;8.202;2023-10-08T04:58:28;9.25;;;3.28;;
41059;SDS011;26811;53.160;8.202;2023-10-08T05:03:33;16.73;;;3.85;;
41059;SDS011;26811;53.160;8.202;2023-10-08T05:08:43;16.42;;;3.20;;
41059;SDS011;26811;53.160;8.202;2023-10-08T05:13:47;22.50;;;3.42;;
41059;SDS011;26811;53.160;8.202;2023-10-08T05:19:17;20.00;;;3.28;;
41059;SDS011;26811;53.160;8.202;2023-10-08T05:24:36;17.83;;;3.80;;
41059;SDS011;26811;53.160;8.202;2023-10-08T05:29:40;11.95;;;3.00;;
41059;SDS011;26811;53.160;8.202;2023-10-08T05:35:13;10.47;;;3.23;;
41059;SDS011;26811;53.160;8.202;2023-10-08T05:40:32;13.88;;;3.75;;
41059;SDS011;26811;53.160;8.202;2023-10-08T05:45:51;20.23;;;5.40;;
41059;SDS011;26811;53.160;8.202;2023-10-08T05:56:33;14.55;;;4.05;;
41059;SDS011;26811;53.160;8.202;2023-10-08T06:01:52;9.77;;;2.95;;
41059;SDS011;26811;53.160;8.202;2023-10-08T06:07:05;14.80;;;3.40;;
41059;SDS011;26811;53.160;8.202;2023-10-08T06:12:17;15.43;;;3.88;;
41059;SDS011;26811;53.160;8.202;2023-10-08T06:17:29;19.35;;;3.50;;
41059;SDS011;26811;53.160;8.202;2023-10-08T06:22:51;15.20;;;3.42;;
41059;SDS011;26811;53.160;8.202;2023-10-08T06:27:54;17.02;;;2.80;;
41059;SDS011;26811;53.160;8.202;2023-10-08T06:32:57;11.43;;;2.80;;
41059;SDS011;26811;53.160;8.202;2023-10-08T06:37:58;8.15;;;3.30;;
41059;SDS011;26811;53.160;8.202;2023-10-08T06:43:07;20.15;;;3.33;;
41059;SDS011;26811;53.160;8.202;2023-10-08T06:48:37;10.13;;;3.00;;
41059;SDS011;26811;53.160;8.202;2023-10-08T06:53:42;16.13;;;3.08;;
41059;SDS011;26811;53.160;8.202;2023-10-08T06:58:47;18.75;;;4.28;;
41059;SDS011;26811;53.160;8.202;2023-10-08T07:03:56;17.25;;;3.90;;
41059;SDS011;26811;53.160;8.202;2023-10-08T07:09:03;21.67;;;3.80;;
41059;SDS011;26811;53.160;8.202;2023-10-08T07:14:13;20.70;;;3.40;;
41059;SDS011;26811;53.160;8.202;2023-10-08T07:19:15;22.63;;;4.00;;
41059;SDS011;26811;53.160;8.202;2023-10-08T07:24:18;14.40;;;3.22;;
41059;SDS011;26811;53.160;8.202;2023-10-08T07:29:21;20.35;;;3.30;;
41059;SDS011;26811;53.160;8.202;2023-10-08T07:34:22;16.65;;;3.55;;
41059;SDS011;26811;53.160;8.202;2023-10-08T07:39:25;21.48;;;3.25;;
41059;SDS011;26811;53.160;8.202;2023-10-08T07:44:32;19.98;;;3.42;;
41059;SDS011;26811;53.160;8.202;2023-10-08T07:49:36;10.68;;;2.90;;
41059;SDS011;26811;53.160;8.202;2023-10-08T07:54:37;16.85;;;2.97;;
41059;SDS011;26811;53.160;8.202;2023-10-08T07:59:38;20.73;;;3.10;;
41059;SDS011;26811;53.160;8.202;2023-10-08T08:04:42;17.42;;;2.78;;
41059;SDS011;26811;53.160;8.202;2023-10-08T08:09:46;16.98;;;2.60;;
41059;SDS011;26811;53.160;8.202;2023-10-08T08:14:51;22.17;;;4.47;;
41059;SDS011;26811;53.160;8.202;2023-10-08T08:19:52;14.73;;;2.40;;
41059;SDS011;26811;53.160;8.202;2023-10-08T08:24:53;18.83;;;2.65;;
41059;SDS011;26811;53.160;8.202;2023-10-08T08:30:15;15.07;;;2.05;;
41059;SDS011;26811;53.160;8.202;2023-10-08T08:35:16;17.60;;;3.00;;
41059;SDS011;26811;53.160;8.202;2023-10-08T08:40:19;21.73;;;2.85;;
41059;SDS011;26811;53.160;8.202;2023-10-08T08:45:24;14.10;;;2.70;;
41059;SDS011;26811;53.160;8.202;2023-10-08T08:50:25;61.65;;;13.80;;
41059;SDS011;26811;53.160;8.202;2023-10-08T08:55:26;32.00;;;6.35;;
41059;SDS011;26811;53.160;8.202;2023-10-08T09:00:28;18.10;;;2.75;;
41059;SDS011;26811;53.160;8.202;2023-10-08T09:05:30;24.35;;;3.58;;
41059;SDS011;26811;53.160;8.202;2023-10-08T09:10:35;29.00;;;2.45;;
41059;SDS011;26811;53.160;8.202;2023-10-08T09:15:37;12.65;;;2.10;;
41059;SDS011;26811;53.160;8.202;2023-10-08T09:20:38;11.98;;;2.30;;
41059;SDS011;26811;53.160;8.202;2023-10-08T09:25:45;11.70;;;2.97;;
41059;SDS011;26811;53.160;8.202;2023-10-08T09:30:50;18.73;;;2.35;;
41059;SDS011;26811;53.160;8.202;2023-10-08T09:35:52;15.02;;;2.22;;
41059;SDS011;26811;53.160;8.202;2023-10-08T09:40:57;28.90;;;3.22;;
41059;SDS011;26811;53.160;8.202;2023-10-08T09:51:21;17.00;;;2.45;;
41059;SDS011;26811;53.160;8.202;2023-10-08T09:56:24;6.25;;;1.92;;
41059;SDS011;26811;53.160;8.202;2023-10-08T10:01:26;20.23;;;2.40;;
41059;SDS011;26811;53.160;8.202;2023-10-08T10:06:28;16.25;;;2.15;;
41059;SDS011;26811;53.160;8.202;2023-10-08T10:11:29;18.65;;;1.95;;
41059;SDS011;26811;53.160;8.202;2023-10-08T10:16:30;15.57;;;2.78;;
41059;SDS011;26811;53.160;8.202;2023-10-08T10:21:31;19.80;;;2.60;;
41059;SDS011;26811;53.160;8.202;2023-10-08T10:26:33;17.85;;;2.42;;
41059;SDS011;26811;53.160;8.202;2023-10-08T10:31:35;13.32;;;2.10;;
41059;SDS011;26811;53.160;8.202;2023-10-08T10:36:40;13.18;;;2.33;;
41059;SDS011;26811;53.160;8.202;2023-10-08T10:41:47;10.07;;;2.45;;
41059;SDS011;26811;53.160;8.202;2023-10-08T10:46:55;15.30;;;2.80;;
41059;SDS011;26811;53.160;8.202;2023-10-08T10:52:17;16.05;;;2.33;;
41059;SDS011;26811;53.160;8.202;2023-10-08T10:57:31;11.93;;;1.98;;
41059;SDS011;26811;53.160;8.202;2023-10-08T11:02:34;19.60;;;2.17;;
41059;SDS011;26811;53.160;8.202;2023-10-08T11:18:19;14.57;;;2.70;;
41059;SDS011;26811;53.160;8.202;2023-10-08T11:23:31;22.23;;;2.45;;
41059;SDS011;26811;53.160;8.202;2023-10-08T11:28:33;8.90;;;2.03;;
41059;SDS011;26811;53.160;8.202;2023-10-08T11:33:41;17.40;;;2.40;;
41059;SDS011;26811;53.160;8.202;2023-10-08T11:38:46;11.60;;;2.50;;
41059;SDS011;26811;53.160;8.202;2023-10-08T11:44:02;14.05;;;2.13;;
41059;SDS011;26811;53.160;8.202;2023-10-08T11:49:07;14.35;;;2.33;;
41059;SDS011;26811;53.160;8.202;2023-10-08T11:54:17;12.32;;;1.98;;
41059;SDS011;26811;53.160;8.202;2023-10-08T11:59:26;18.45;;;2.08;;
41059;SDS011;26811;53.160;8.202;2023-10-08T12:04:32;19.83;;;3.07;;
41059;SDS011;26811;53.160;8.202;2023-10-08T12:09:32;28.50;;;2.63;;
41059;SDS011;26811;53.160;8.202;2023-10-08T12:14:37;15.57;;;2.55;;
41059;SDS011;26811;53.160;8.202;2023-10-08T12:19:38;12.68;;;2.03;;
41059;SDS011;26811;53.160;8.202;2023-10-08T12:24:50;16.92;;;2.45;;
41059;SDS011;26811;53.160;8.202;2023-10-08T12:29:51;15.57;;;1.80;;
41059;SDS011;26811;53.160;8.202;2023-10-08T12:35:00;17.80;;;2.28;;
41059;SDS011;26811;53.160;8.202;2023-10-08T12:40:09;20.67;;;2.88;;
41059;SDS011;26811;53.160;8.202;2023-10-08T12:45:24;11.60;;;1.73;;
41059;SDS011;26811;53.160;8.202;2023-10-08T12:50:27;13.25;;;2.13;;
41059;SDS011;26811;53.160;8.202;2023-10-08T12:55:38;19.15;;;2.80;;
41059;SDS011;26811;53.160;8.202;2023-10-08T13:00:44;13.95;;;2.30;;
41059;SDS011;26811;53.160;8.202;2023-10-08T13:05:49;18.75;;;2.10;;
41059;SDS011;26811;53.160;8.202;2023-10-08T13:10:54;17.98;;;2.38;;
41059;SDS011;26811;53.160;8.202;2023-10-08T13:16:00;21.90;;;2.45;;
41059;SDS011;26811;53.160;8.202;2023-10-08T13:21:07;17.88;;;2.85;;
41059;SDS011;26811;53.160;8.202;2023-10-08T13:26:09;21.30;;;2.40;;
41059;SDS011;26811;53.160;8.202;2023-10-08T13:31:16;21.27;;;3.38;;
41059;SDS011;26811;53.160;8.202;2023-10-08T13:36:19;16.73;;;2.40;;
41059;SDS011;26811;53.160;8.202;2023-10-08T13:41:19;14.38;;;2.20;;
41059;SDS011;26811;53.160;8.202;2023-10-08T13:46:20;15.35;;;2.60;;
41059;SDS011;26811;53.160;8.202;2023-10-08T13:51:25;11.93;;;2.60;;
41059;SDS011;26811;53.160;8.202;2023-10-08T13:56:26;12.55;;;2.45;;
41059;SDS011;26811;53.160;8.202;2023-10-08T14:01:30;14.60;;;2.20;;
41059;SDS011;26811;53.160;8.202;2023-10-08T14:06:34;11.40;;;2.08;;
41059;SDS011;26811;53.160;8.202;2023-10-08T14:11:35;10.60;;;2.30;;
41059;SDS011;26811;53.160;8.202;2023-10-08T14:16:36;16.52;;;2.42;;
41059;SDS011;26811;53.160;8.202;2023-10-08T14:21:48;12.00;;;2.17;;
41059;SDS011;26811;53.160;8.202;2023-10-08T14:33:04;13.70;;;2.20;;
41059;SDS011;26811;53.160;8.202;2023-10-08T14:38:08;18.52;;;2.17;;
41059;SDS011;26811;53.160;8.202;2023-10-08T14:43:28;16.05;;;2.92;;
41059;SDS011;26811;53.160;8.202;2023-10-08T14:48:34;12.75;;;2.65;;
41059;SDS011;26811;53.160;8.202;2023-10-08T14:53:35;22.88;;;2.65;;
41059;SDS011;26811;53.160;8.202;2023-10-08T14:58:38;10.27;;;2.58;;
41059;SDS011;26811;53.160;8.202;2023-10-08T15:03:41;15.82;;;2.30;;
41059;SDS011;26811;53.160;8.202;2023-10-08T15:08:42;16.40;;;2.72;;
41059;SDS011;26811;53.160;8.202;2023-10-08T15:13:45;9.75;;;2.15;;
41059;SDS011;26811;53.160;8.202;2023-10-08T15:18:53;15.98;;;2.60;;
41059;SDS011;26811;53.160;8.202;2023-10-08T15:23:56;17.50;;;2.58;;
41059;SDS011;26811;53.160;8.202;2023-10-08T15:28:57;14.23;;;2.30;;
41059;SDS011;26811;53.160;8.202;2023-10-08T15:33:58;15.18;;;2.60;;
41059;SDS011;26811;53.160;8.202;2023-10-08T15:38:59;12.52;;;3.40;;
41059;SDS011;26811;53.160;8.202;2023-10-08T15:44:07;20.40;;;2.13;;
41059;SDS011;26811;53.160;8.202;2023-10-08T15:49:08;24.20;;;2.83;;
41059;SDS011;26811;53.160;8.202;2023-10-08T15:54:12;22.30;;;3.47;;
41059;SDS011;26811;53.160;8.202;2023-10-08T15:59:20;20.88;;;3.25;;
41059;SDS011;26811;53.160;8.202;2023-10-08T16:04:21;19.08;;;3.13;;
41059;SDS011;26811;53.160;8.202;2023-10-08T16:09:26;15.82;;;3.95;;
41059;SDS011;26811;53.160;8.202;2023-10-08T16:14:28;33.03;;;5.47;;
41059;SDS011;26811;53.160;8.202;2023-10-08T16:19:28;17.88;;;4.40;;
41059;SDS011;26811;53.160;8.202;2023-10-08T16:24:31;23.95;;;4.78;;
41059;SDS011;26811;53.160;8.202;2023-10-08T16:29:32;17.25;;;4.57;;
41059;SDS011;26811;53.160;8.202;2023-10-08T16:34:36;17.08;;;3.63;;
41059;SDS011;26811;53.160;8.202;2023-10-08T16:39:36;17.38;;;3.72;;
41059;SDS011;26811;53.160;8.202;2023-10-08T16:44:37;15.50;;;4.13;;
41059;SDS011;26811;53.160;8.202;2023-10-08T16:49:41;23.67;;;4.78;;
41059;SDS011;26811;53.160;8.202;2023-10-08T16:54:41;17.55;;;4.30;;
41059;SDS011;26811;53.160;8.202;2023-10-08T16:59:53;22.40;;;4.78;;
41059;SDS011;26811;53.160;8.202;2023-10-08T17:04:53;20.40;;;4.72;;
41059;SDS011;26811;53.160;8.202;2023-10-08T17:09:54;22.73;;;5.22;;
41059;SDS011;26811;53.160;8.202;2023-10-08T17:15:07;25.45;;;5.82;;
41059;SDS011;26811;53.160;8.202;2023-10-08T17:20:10;19.73;;;5.43;;
41059;SDS011;26811;53.160;8.202;2023-10-08T17:25:11;19.88;;;5.75;;
41059;SDS011;26811;53.160;8.202;2023-10-08T17:35:35;23.58;;;7.75;;
41059;SDS011;26811;53.160;8.202;2023-10-08T17:40:36;33.17;;;14.15;;
41059;SDS011;26811;53.160;8.202;2023-10-08T17:45:39;26.30;;;8.88;;
41059;SDS011;26811;53.160;8.202;2023-10-08T17:50:46;31.20;;;9.98;;
41059;SDS011;26811;53.160;8.202;2023-10-08T17:55:46;20.33;;;7.75;;
41059;SDS011;26811;53.160;8.202;2023-10-08T18:00:47;26.55;;;6.82;;
41059;SDS011;26811;53.160;8.202;2023-10-08T18:05:47;30.92;;;12.32;;
41059;SDS011;26811;53.160;8.202;2023-10-08T18:10:53;44.45;;;20.13;;
41059;SDS011;26811;53.160;8.202;2023-10-08T18:16:01;29.42;;;11.32;;
41059;SDS011;26811;53.160;8.202;2023-10-08T18:21:04;26.75;;;10.25;;
41059;SDS011;26811;53.160;8.202;2023-10-08T18:26:09;23.90;;;6.82;;
41059;SDS011;26811;53.160;8.202;2023-10-08T18:31:10;22.77;;;6.78;;
41059;SDS011;26811;53.160;8.202;2023-10-08T18:36:12;24.55;;;7.50;;
41059;SDS011;26811;53.160;8.202;2023-10-08T18:41:15;29.92;;;8.13;;
41059;SDS011;26811;53.160;8.202;2023-10-08T18:46:26;19.67;;;7.43;;
41059;SDS011;26811;53.160;8.202;2023-10-08T18:51:27;27.48;;;7.28;;
41059;SDS011;26811;53.160;8.202;2023-10-08T18:56:28;32.92;;;9.18;;
41059;SDS011;26811;53.160;8.202;2023-10-08T19:01:38;24.50;;;7.50;;
41059;SDS011;26811;53.160;8.202;2023-10-08T19:06:43;20.80;;;6.60;;
41059;SDS011;26811;53.160;8.202;2023-10-08T19:11:44;25.75;;;7.10;;
41059;SDS011;26811;53.160;8.202;2023-10-08T19:16:45;21.48;;;6.72;;
41059;SDS011;26811;53.160;8.202;2023-10-08T19:22:06;24.85;;;7.53;;
41059;SDS011;26811;53.160;8.202;2023-10-08T19:27:07;21.85;;;6.68;;
41059;SDS011;26811;53.160;8.202;2023-10-08T19:32:09;28.63;;;8.50;;
41059;SDS011;26811;53.160;8.202;2023-10-08T19:37:11;45.88;;;20.73;;
41059;SDS011;26811;53.160;8.202;2023-10-08T19:42:30;34.08;;;8.70;;
41059;SDS011;26811;53.160;8.202;2023-10-08T19:47:31;25.83;;;7.13;;
41059;SDS011;26811;53.160;8.202;2023-10-08T19:52:34;27.33;;;7.17;;
41059;SDS011;26811;53.160;8.202;2023-10-08T20:02:35;26.45;;;6.13;;
41059;SDS011;26811;53.160;8.202;2023-10-08T20:18:22;25.90;;;7.85;;
41059;SDS011;26811;53.160;8.202;2023-10-08T20:23:33;36.20;;;13.20;;
41059;SDS011;26811;53.160;8.202;2023-10-08T20:28:45;38.05;;;12.95;;
41059;SDS011;26811;53.160;8.202;2023-10-08T20:33:47;34.53;;;11.10;;
41059;SDS011;26811;53.160;8.202;2023-10-08T20:38:54;23.23;;;7.05;;
41059;SDS011;26811;53.160;8.202;2023-10-08T20:49:09;26.13;;;7.95;;
41059;SDS011;26811;53.160;8.202;2023-10-08T21:00:00;24.50;;;6.88;;
41059;SDS011;26811;53.160;8.202;2023-10-08T21:05:01;14.38;;;6.60;;
41059;SDS011;26811;53.160;8.202;2023-10-08T21:10:05;29.35;;;6.80;;
41059;SDS011;26811;53.160;8.202;2023-10-08T21:15:12;31.30;;;6.03;;
41059;SDS011;26811;53.160;8.202;2023-10-08T21:20:18;21.75;;;5.65;;
41059;SDS011;26811;53.160;8.202;2023-10-08T21:25:22;22.02;;;5.72;;
41059;SDS011;26811;53.160;8.202;2023-10-08T21:30:22;21.38;;;5.68;;
41059;SDS011;26811;53.160;8.202;2023-10-08T21:35:25;24.48;;;5.82;;
41059;SDS011;26811;53.160;8.202;2023-10-08T21:40:27;20.23;;;5.88;;
41059;SDS011;26811;53.160;8.202;2023-10-08T21:45:28;21.13;;;6.78;;
41059;SDS011;26811;53.160;8.202;2023-10-08T21:50:31;28.58;;;6.32;;
41059;SDS011;26811;53.160;8.202;2023-10-08T21:55:31;27.92;;;6.97;;
41059;SDS011;26811;53.160;8.202;2023-10-08T22:00:32;22.92;;;5.63;;
41059;SDS011;26811;53.160;8.202;2023-10-08T22:05:44;18.70;;;5.70;;
41059;SDS011;26811;53.160;8.202;2023-10-08T22:10:45;16.70;;;6.25;;
41059;SDS011;26811;53.160;8.202;2023-10-08T22:15:45;19.73;;;5.90;;
41059;SDS011;26811;53.160;8.202;2023-10-08T22:20:47;23.90;;;6.38;;
41059;SDS011;26811;53.160;8.202;2023-10-08T22:25:53;18.67;;;5.45;;
41059;SDS011;26811;53.160;8.202;2023-10-08T22:30:53;18.63;;;6.20;;
41059;SDS011;26811;53.160;8.202;2023-10-08T22:35:54;25.45;;;6.30;;
41059;SDS011;26811;53.160;8.202;2023-10-08T22:40:55;26.70;;;6.82;;
41059;SDS011;26811;53.160;8.202;2023-10-08T22:45:56;27.60;;;6.70;;
41059;SDS011;26811;53.160;8.202;2023-10-08T22:51:02;31.27;;;6.93;;
41059;SDS011;26811;53.160;8.202;2023-10-08T22:56:09;22.02;;;6.70;;
41059;SDS011;26811;53.160;8.202;2023-10-08T23:01:19;24.77;;;6.70;;
41059;SDS011;26811;53.160;8.202;2023-10-08T23:06:21;17.55;;;6.90;;
41059;SDS011;26811;53.160;8.202;2023-10-08T23:11:23;22.70;;;7.23;;
41059;SDS011;26811;53.160;8.202;2023-10-08T23:16:24;17.10;;;7.10;;
41059;SDS011;26811;53.160;8.202;2023-10-08T23:21:29;27.52;;;6.88;;
41059;SDS011;26811;53.160;8.202;2023-10-08T23:26:30;22.65;;;6.80;;
41059;SDS011;26811;53.160;8.202;2023-10-08T23:31:31;22.13;;;6.90;;
41059;SDS011;26811;53.160;8.202;2023-10-08T23:36:32;21.55;;;6.90;;
41059;SDS011;26811;53.160;8.202;2023-10-08T23:41:39;20.65;;;6.22;;
41059;SDS011;26811;53.160;8.202;2023-10-08T23:46:55;27.42;;;6.43;;
41059;SDS011;26811;53.160;8.202;2023-10-08T23:52:11;18.02;;;6.55;;
41059;SDS011;26811;53.160;8.202;2023-10-08T23:57:12;14.35;;;6.20;;
